Emden — 3ERP5 — position and weather

sailwx.info

Track history (hours):
 
Tides and Currents Weather Stations Pressure Air Temp Water Temp Dewpoint Dewpoint Depression Visibility Wind Speed Wind Dir Waves Ship Positions

Emden

Last reported at 2016-May-04 01:28 UTC. Time now 2016-May-04 01:56 UTC.
Position N 43°47' W 006°15'.

Length 177 m; draft 7.7 m.

Type: Ship. MMSI: 355051000.

Date/timePositionNaut miles runAvg speedWind from/ knotsBaromVisibWave heightAir tempDewpointWater temp
2016-May-04 01:28N 43°47' W 006°15'4615.0
2016-May-03 22:26N 43°41' W 005°12'  
2016-May-01 15:14N 48°47' W 006°04'1414.6
2016-May-01 14:17N 49°01' W 006°01'1414.4
2016-May-01 13:18N 49°15' W 006°01'7813.6
2016-May-01 07:34N 50°33' W 006°00'1513.6
2016-May-01 06:28N 50°48' W 005°60'17 0.5
2016-Apr-29 20:09N 51°05' W 005°52'914.8
2016-Apr-29 19:33N 50°55' W 005°52'1514.8
2016-Apr-29 18:32N 50°40' W 005°53'1414.6
2016-Apr-29 17:33N 50°26' W 005°54'1514.7
2016-Apr-29 16:33N 50°11' W 005°55'3411.3
2016-Apr-29 13:33N 49°50' W 005°13'1514.9
2016-Apr-29 12:34N 49°52' W 004°50'1514.5
2016-Apr-29 11:33N 49°53' W 004°28'1414.2
2016-Apr-29 10:33N 49°55' W 004°06'1413.9
2016-Apr-29 09:33N 49°57' W 003°45'1414.2
2016-Apr-29 08:33N 49°58' W 003°23'1514.8
2016-Apr-29 07:33N 50°01' W 003°00'1615.7
2016-Apr-29 06:31N 50°04' W 002°35'6215.6
2016-Apr-29 02:33N 50°21' W 001°02'1312.7
2016-Apr-29 01:29N 50°25' W 000°42'1111.9
2016-Apr-29 00:32N 50°28' W 000°25'1111.7
2016-Apr-28 23:33N 50°31' W 000°08'1212.3
2016-Apr-28 22:33N 50°34' E 000°11'1513.3
2016-Apr-28 21:23N 50°39' E 000°34'2714.2
2016-Apr-28 19:30N 50°54' E 001°09'1314.0
2016-Apr-28 18:34N 51°03' E 001°25'1312.8
2016-Apr-28 17:33N 51°11' E 001°40'1212.4
2016-Apr-28 16:33N 51°21' E 001°54'1313.0
2016-Apr-28 15:34N 51°31' E 002°05'16515.0
2016-Apr-28 04:33N 53°35' E 005°05'1616.0
2016-Apr-28 03:33N 53°40' E 005°30'1615.7
2016-Apr-28 02:33N 53°45' E 005°55'1414.4
2016-Apr-28 01:33N 53°39' E 006°17'1010.3
2016-Apr-28 00:33N 53°36' E 006°34'1313.2
2016-Apr-27 23:33N 53°28' E 006°51'1111.0
2016-Apr-27 22:33N 53°19' E 007°03'5 4.7
2016-Apr-27 21:32N 53°20' E 007°11'0 0.0
2016-Apr-27 20:32N 53°20' E 007°11'0 0.0
2016-Apr-27 19:32N 53°20' E 007°11'0 0.0
2016-Apr-27 18:32N 53°20' E 007°11'0 0.0
2016-Apr-27 17:29N 53°20' E 007°11'0 0.0
2016-Apr-27 16:32N 53°20' E 007°11'0 0.0
2016-Apr-27 15:32N 53°20' E 007°11'0 0.0
2016-Apr-27 14:32N 53°20' E 007°11'0 0.0
2016-Apr-27 13:17N 53°20' E 007°11'0 0.0
2016-Apr-27 12:32N 53°20' E 007°11'0 0.0
2016-Apr-27 11:32N 53°20' E 007°11'0 0.0
2016-Apr-27 10:32N 53°20' E 007°11'0 0.0
2016-Apr-27 09:32N 53°20' E 007°11'0 0.0
2016-Apr-27 08:32N 53°20' E 007°11'0 0.0
2016-Apr-27 07:32N 53°20' E 007°11'0 0.0
2016-Apr-27 06:32N 53°20' E 007°11'0 0.0
2016-Apr-27 05:32N 53°20' E 007°11'0 0.0
2016-Apr-27 04:32N 53°20' E 007°11'0 0.0
2016-Apr-27 03:32N 53°20' E 007°11'0 0.0
2016-Apr-27 02:32N 53°20' E 007°11'0 0.0
2016-Apr-27 01:29N 53°20' E 007°11'0 0.0
2016-Apr-27 00:32N 53°20' E 007°11'0 0.0
2016-Apr-26 23:32N 53°20' E 007°11'0 0.0
2016-Apr-26 22:32N 53°20' E 007°11'0 0.0
2016-Apr-26 21:31N 53°20' E 007°11'0 0.0
2016-Apr-26 20:31N 53°20' E 007°11'0 0.0
2016-Apr-26 19:31N 53°20' E 007°11'0 0.0
2016-Apr-26 18:31N 53°20' E 007°11'0 0.0
2016-Apr-26 17:31N 53°20' E 007°11'0 0.0
2016-Apr-26 16:31N 53°20' E 007°11'0 0.0
2016-Apr-26 15:31N 53°20' E 007°11'2 2.3
2016-Apr-26 14:33N 53°20' E 007°07'10 9.5
2016-Apr-26 13:33N 53°26' E 006°55'1515.0
2016-Apr-26 12:33N 53°36' E 006°36'1312.8
2016-Apr-26 11:33N 53°39' E 006°15'1515.1
2016-Apr-26 10:34N 53°38' E 005°50'1616.1
2016-Apr-26 09:34N 53°34' E 005°23'1616.0
2016-Apr-26 08:33N 53°27' E 004°58'1914.3
2016-Apr-26 07:15N 53°15' E 004°36'1014.5
2016-Apr-26 06:33N 53°06' E 004°27'1414.5
2016-Apr-26 05:34N 52°53' E 004°16'1813.9
2016-Apr-26 04:15N 52°38' E 003°58'1013.4
2016-Apr-26 03:31N 52°31' E 003°47'1312.7
2016-Apr-26 02:32N 52°23' E 003°32'1212.2
2016-Apr-26 01:33N 52°14' E 003°18'1312.3
2016-Apr-26 00:32N 52°05' E 003°04'3711.7
2016-Apr-25 21:20N 51°37' E 002°25'911.1
2016-Apr-25 20:33N 51°30' E 002°16'1111.2
2016-Apr-25 19:33N 51°20' E 002°08'1111.4
2016-Apr-25 18:33N 51°11' E 001°56'1312.8
2016-Apr-25 17:33N 51°04' E 001°40'1413.9
2016-Apr-25 16:33N 50°53' E 001°26'5413.4
2016-Apr-25 12:33N 50°22' E 000°17'1515.4
2016-Apr-25 11:33N 50°17' W 000°06'1716.4
2016-Apr-25 10:32N 50°13' W 000°31'9415.7
2016-Apr-25 04:33N 49°48' W 002°52'1313.1
2016-Apr-25 03:33N 49°42' W 003°10'1413.0
2016-Apr-25 02:28N 49°35' W 003°30'6312.7
2016-Apr-24 21:32N 49°04' W 004°53'1613.4
2016-Apr-24 20:19N 48°56' W 005°15'1013.9
2016-Apr-24 19:33N 48°51' W 005°29'  
Track history (hours):
 
Tides and Currents Weather Stations Pressure Air Temp Water Temp Dewpoint Dewpoint Depression Visibility Wind Speed Wind Dir Waves Ship Positions

Emden

Last reported at 2016-May-04 01:28 UTC. Time now 2016-May-04 01:56 UTC.
Position N 43°47' W 006°15'.

Length 177 m; draft 7.7 m.

Type: Ship. MMSI: 355051000.

Date/timePositionNaut miles runAvg speedWind from/ knotsBaromVisibWave heightAir tempDewpointWater temp
2016-May-04 01:28N 43°47' W 006°15'4615.0
2016-May-03 22:26N 43°41' W 005°12'  
2016-May-01 15:14N 48°47' W 006°04'1414.6
2016-May-01 14:17N 49°01' W 006°01'1414.4
2016-May-01 13:18N 49°15' W 006°01'7813.6
2016-May-01 07:34N 50°33' W 006°00'1513.6
2016-May-01 06:28N 50°48' W 005°60'17 0.5
2016-Apr-29 20:09N 51°05' W 005°52'914.8
2016-Apr-29 19:33N 50°55' W 005°52'1514.8
2016-Apr-29 18:32N 50°40' W 005°53'1414.6
2016-Apr-29 17:33N 50°26' W 005°54'1514.7
2016-Apr-29 16:33N 50°11' W 005°55'3411.3
2016-Apr-29 13:33N 49°50' W 005°13'1514.9
2016-Apr-29 12:34N 49°52' W 004°50'1514.5
2016-Apr-29 11:33N 49°53' W 004°28'1414.2
2016-Apr-29 10:33N 49°55' W 004°06'1413.9
2016-Apr-29 09:33N 49°57' W 003°45'1414.2
2016-Apr-29 08:33N 49°58' W 003°23'1514.8
2016-Apr-29 07:33N 50°01' W 003°00'1615.7
2016-Apr-29 06:31N 50°04' W 002°35'6215.6
2016-Apr-29 02:33N 50°21' W 001°02'1312.7
2016-Apr-29 01:29N 50°25' W 000°42'1111.9
2016-Apr-29 00:32N 50°28' W 000°25'1111.7
2016-Apr-28 23:33N 50°31' W 000°08'1212.3
2016-Apr-28 22:33N 50°34' E 000°11'1513.3
2016-Apr-28 21:23N 50°39' E 000°34'2714.2
2016-Apr-28 19:30N 50°54' E 001°09'1314.0
2016-Apr-28 18:34N 51°03' E 001°25'1312.8
2016-Apr-28 17:33N 51°11' E 001°40'1212.4
2016-Apr-28 16:33N 51°21' E 001°54'1313.0
2016-Apr-28 15:34N 51°31' E 002°05'16515.0
2016-Apr-28 04:33N 53°35' E 005°05'1616.0
2016-Apr-28 03:33N 53°40' E 005°30'1615.7
2016-Apr-28 02:33N 53°45' E 005°55'1414.4
2016-Apr-28 01:33N 53°39' E 006°17'1010.3
2016-Apr-28 00:33N 53°36' E 006°34'1313.2
2016-Apr-27 23:33N 53°28' E 006°51'1111.0
2016-Apr-27 22:33N 53°19' E 007°03'5 4.7
2016-Apr-27 21:32N 53°20' E 007°11'0 0.0
2016-Apr-27 20:32N 53°20' E 007°11'0 0.0
2016-Apr-27 19:32N 53°20' E 007°11'0 0.0
2016-Apr-27 18:32N 53°20' E 007°11'0 0.0
2016-Apr-27 17:29N 53°20' E 007°11'0 0.0
2016-Apr-27 16:32N 53°20' E 007°11'0 0.0
2016-Apr-27 15:32N 53°20' E 007°11'0 0.0
2016-Apr-27 14:32N 53°20' E 007°11'0 0.0
2016-Apr-27 13:17N 53°20' E 007°11'0 0.0
2016-Apr-27 12:32N 53°20' E 007°11'0 0.0
2016-Apr-27 11:32N 53°20' E 007°11'0 0.0
2016-Apr-27 10:32N 53°20' E 007°11'0 0.0
2016-Apr-27 09:32N 53°20' E 007°11'0 0.0
2016-Apr-27 08:32N 53°20' E 007°11'0 0.0
2016-Apr-27 07:32N 53°20' E 007°11'0 0.0
2016-Apr-27 06:32N 53°20' E 007°11'0 0.0
2016-Apr-27 05:32N 53°20' E 007°11'0 0.0
2016-Apr-27 04:32N 53°20' E 007°11'0 0.0
2016-Apr-27 03:32N 53°20' E 007°11'0 0.0
2016-Apr-27 02:32N 53°20' E 007°11'0 0.0
2016-Apr-27 01:29N 53°20' E 007°11'0 0.0
2016-Apr-27 00:32N 53°20' E 007°11'0 0.0
2016-Apr-26 23:32N 53°20' E 007°11'0 0.0
2016-Apr-26 22:32N 53°20' E 007°11'0 0.0
2016-Apr-26 21:31N 53°20' E 007°11'0 0.0
2016-Apr-26 20:31N 53°20' E 007°11'0 0.0
2016-Apr-26 19:31N 53°20' E 007°11'0 0.0
2016-Apr-26 18:31N 53°20' E 007°11'0 0.0
2016-Apr-26 17:31N 53°20' E 007°11'0 0.0
2016-Apr-26 16:31N 53°20' E 007°11'0 0.0
2016-Apr-26 15:31N 53°20' E 007°11'2 2.3
2016-Apr-26 14:33N 53°20' E 007°07'10 9.5
2016-Apr-26 13:33N 53°26' E 006°55'1515.0
2016-Apr-26 12:33N 53°36' E 006°36'1312.8
2016-Apr-26 11:33N 53°39' E 006°15'1515.1
2016-Apr-26 10:34N 53°38' E 005°50'1616.1
2016-Apr-26 09:34N 53°34' E 005°23'1616.0
2016-Apr-26 08:33N 53°27' E 004°58'1914.3
2016-Apr-26 07:15N 53°15' E 004°36'1014.5
2016-Apr-26 06:33N 53°06' E 004°27'1414.5
2016-Apr-26 05:34N 52°53' E 004°16'1813.9
2016-Apr-26 04:15N 52°38' E 003°58'1013.4
2016-Apr-26 03:31N 52°31' E 003°47'1312.7
2016-Apr-26 02:32N 52°23' E 003°32'1212.2
2016-Apr-26 01:33N 52°14' E 003°18'1312.3
2016-Apr-26 00:32N 52°05' E 003°04'3711.7
2016-Apr-25 21:20N 51°37' E 002°25'911.1
2016-Apr-25 20:33N 51°30' E 002°16'1111.2
2016-Apr-25 19:33N 51°20' E 002°08'1111.4
2016-Apr-25 18:33N 51°11' E 001°56'1312.8
2016-Apr-25 17:33N 51°04' E 001°40'1413.9
2016-Apr-25 16:33N 50°53' E 001°26'5413.4
2016-Apr-25 12:33N 50°22' E 000°17'1515.4
2016-Apr-25 11:33N 50°17' W 000°06'1716.4
2016-Apr-25 10:32N 50°13' W 000°31'9415.7
2016-Apr-25 04:33N 49°48' W 002°52'1313.1
2016-Apr-25 03:33N 49°42' W 003°10'1413.0
2016-Apr-25 02:28N 49°35' W 003°30'6312.7
2016-Apr-24 21:32N 49°04' W 004°53'1613.4
2016-Apr-24 20:19N 48°56' W 005°15'1013.9
2016-Apr-24 19:33N 48°51' W 005°29'  

Dump ship's entire track history